createdAt,value
2023-05-20T00:01:38.193Z,6.43
2023-05-20T00:03:43.500Z,6.82
2023-05-20T00:05:49.122Z,6.28
2023-05-20T00:07:54.236Z,6.22
2023-05-20T00:10:01.214Z,5.20
2023-05-20T00:12:06.156Z,6.53
2023-05-20T00:14:11.390Z,6.07
2023-05-20T00:16:19.285Z,6.32
2023-05-20T00:18:27.498Z,6.40
2023-05-20T00:20:36.508Z,5.65
2023-05-20T00:22:41.572Z,6.03
2023-05-20T00:24:46.794Z,6.07
2023-05-20T00:26:52.231Z,5.93
2023-05-20T00:28:57.461Z,7.38
2023-05-20T00:31:02.779Z,6.13
2023-05-20T00:33:10.862Z,6.88
2023-05-20T00:35:16.041Z,5.75
2023-05-20T00:37:21.177Z,6.32
2023-05-20T00:39:27.230Z,6.43
2023-05-20T00:41:32.905Z,6.53
2023-05-20T00:43:38.191Z,6.13
2023-05-20T00:45:43.974Z,6.28
2023-05-20T00:47:49.433Z,6.53
2023-05-20T00:49:58.012Z,6.65
2023-05-20T00:52:11.049Z,5.97
2023-05-20T00:54:16.371Z,5.97
2023-05-20T00:56:22.449Z,6.45
2023-05-20T00:58:27.772Z,6.05
2023-05-20T01:00:33.522Z,6.70
2023-05-20T01:02:38.760Z,6.13
2023-05-20T01:04:47.498Z,7.18
2023-05-20T01:06:56.208Z,6.93
2023-05-20T01:09:01.642Z,7.15
2023-05-20T01:11:10.269Z,7.45
2023-05-20T01:13:19.977Z,6.80
2023-05-20T01:15:27.387Z,6.13
2023-05-20T01:17:38.189Z,6.40
2023-05-20T01:19:46.661Z,6.10
2023-05-20T01:21:57.116Z,6.55
2023-05-20T01:24:06.067Z,6.72
2023-05-20T01:26:14.098Z,7.30
2023-05-20T01:28:20.862Z,6.60
2023-05-20T01:30:29.471Z,6.72
2023-05-20T01:32:40.822Z,7.32
2023-05-20T01:34:47.052Z,6.68
2023-05-20T01:36:53.866Z,7.35
2023-05-20T01:39:01.089Z,7.18
2023-05-20T01:41:10.394Z,7.13
2023-05-20T01:43:17.699Z,7.07
2023-05-20T01:45:27.023Z,7.88
2023-05-20T01:47:32.244Z,6.95
2023-05-20T01:49:40.332Z,7.65
2023-05-20T01:51:45.475Z,7.03
2023-05-20T01:53:50.564Z,6.70
2023-05-20T01:55:58.608Z,8.20
2023-05-20T01:58:06.514Z,8.13
2023-05-20T02:00:12.997Z,7.85
2023-05-20T02:02:22.137Z,8.23
2023-05-20T02:04:27.563Z,7.75
2023-05-20T02:06:35.466Z,7.00
2023-05-20T02:08:41.374Z,7.57
2023-05-20T02:10:46.607Z,6.93
2023-05-20T02:12:51.800Z,6.97
2023-05-20T02:15:00.141Z,7.15
2023-05-20T02:17:05.086Z,7.72
2023-05-20T02:19:13.177Z,8.23
2023-05-20T02:21:21.096Z,7.85
2023-05-20T02:23:27.274Z,7.40
2023-05-20T02:25:32.497Z,7.18
2023-05-20T02:27:40.867Z,7.70
2023-05-20T02:29:46.735Z,7.28
2023-05-20T02:31:56.976Z,7.88
2023-05-20T02:34:02.206Z,7.93
2023-05-20T02:36:07.723Z,7.45
2023-05-20T02:38:14.511Z,7.55
2023-05-20T02:40:20.539Z,8.80
2023-05-20T02:42:27.526Z,7.47
2023-05-20T02:44:35.360Z,6.40
2023-05-20T02:46:43.614Z,8.13
2023-05-20T02:48:51.260Z,7.38
2023-05-20T02:50:56.442Z,8.10
2023-05-20T02:53:01.726Z,7.47
2023-05-20T02:55:07.943Z,8.18
2023-05-20T02:57:12.878Z,7.85
2023-05-20T02:59:18.031Z,8.15
2023-05-20T03:01:23.799Z,7.75
2023-05-20T03:03:31.788Z,7.13
2023-05-20T03:05:42.731Z,7.22
2023-05-20T03:07:49.187Z,9.20
2023-05-20T03:09:55.055Z,8.23
2023-05-20T03:12:00.166Z,7.22
2023-05-20T03:14:05.197Z,7.55
2023-05-20T03:16:10.797Z,7.53
2023-05-20T03:18:16.524Z,7.85
2023-05-20T03:20:28.616Z,7.53
2023-05-20T03:22:38.774Z,7.63
2023-05-20T03:24:44.694Z,8.60
2023-05-20T03:26:50.176Z,6.82
2023-05-20T03:28:56.503Z,7.30
2023-05-20T03:31:02.972Z,6.90
2023-05-20T03:33:08.106Z,6.70
2023-05-20T03:35:13.358Z,7.43
2023-05-20T03:37:19.325Z,7.78
2023-05-20T03:39:27.109Z,7.70
2023-05-20T03:41:32.205Z,7.25
2023-05-20T03:43:38.267Z,7.40
2023-05-20T03:45:43.351Z,8.65
2023-05-20T03:47:48.773Z,7.95
2023-05-20T03:49:55.019Z,8.10
2023-05-20T03:52:00.372Z,8.43
2023-05-20T03:54:05.526Z,7.97
2023-05-20T03:56:13.302Z,7.68
2023-05-20T03:58:19.054Z,7.82
2023-05-20T04:00:24.703Z,8.40
2023-05-20T04:02:30.428Z,7.47
2023-05-20T04:04:39.266Z,7.28
2023-05-20T04:06:44.356Z,7.80
2023-05-20T04:08:49.506Z,8.32
2023-05-20T04:10:55.069Z,7.57
2023-05-20T04:13:03.190Z,7.47
2023-05-20T04:15:09.949Z,8.05
2023-05-20T04:17:15.072Z,7.32
2023-05-20T04:19:20.607Z,7.50
2023-05-20T04:21:28.443Z,7.50
2023-05-20T04:23:33.628Z,8.32
2023-05-20T04:25:39.154Z,8.00
2023-05-20T04:27:44.748Z,7.57
2023-05-20T04:29:52.736Z,7.82
2023-05-20T04:31:59.520Z,8.15
2023-05-20T04:34:05.096Z,7.20
2023-05-20T04:36:16.784Z,7.28
2023-05-20T04:38:30.348Z,7.90
2023-05-20T04:40:35.314Z,8.35
2023-05-20T04:42:43.946Z,6.78
2023-05-20T04:44:51.809Z,9.90
2023-05-20T04:46:58.204Z,8.07
2023-05-20T04:49:04.738Z,7.10
2023-05-20T04:51:10.226Z,7.57
2023-05-20T04:53:15.450Z,8.02
2023-05-20T04:55:22.006Z,8.43
2023-05-20T04:57:27.608Z,8.02
2023-05-20T04:59:35.570Z,8.43
2023-05-20T05:01:43.485Z,8.55
2023-05-20T05:03:49.097Z,8.02
2023-05-20T05:05:54.161Z,7.63
2023-05-20T05:08:02.274Z,8.02
2023-05-20T05:10:07.804Z,8.32
2023-05-20T05:12:13.307Z,8.82
2023-05-20T05:14:19.023Z,7.68
2023-05-20T05:16:25.358Z,8.02
2023-05-20T05:18:34.085Z,7.35
2023-05-20T05:20:39.275Z,7.32
2023-05-20T05:22:44.302Z,9.38
2023-05-20T05:24:49.151Z,7.75
2023-05-20T05:26:56.825Z,7.70
2023-05-20T05:29:01.736Z,7.97
2023-05-20T05:31:07.508Z,7.15
2023-05-20T05:33:14.251Z,7.53
2023-05-20T05:35:22.427Z,7.65
2023-05-20T05:37:27.273Z,8.65
2023-05-20T05:39:32.793Z,7.78
2023-05-20T05:41:37.907Z,8.07
2023-05-20T05:43:42.988Z,8.07
2023-05-20T05:45:48.155Z,7.00
2023-05-20T05:47:55.029Z,8.45
2023-05-20T05:50:00.434Z,7.82
2023-05-20T05:52:08.946Z,8.43
2023-05-20T05:54:14.171Z,7.90
2023-05-20T05:56:19.528Z,7.55
2023-05-20T05:58:28.752Z,7.78
2023-05-20T06:00:33.981Z,6.88
2023-05-20T06:02:39.364Z,7.78
2023-05-20T06:04:44.846Z,6.47
2023-05-20T06:06:51.411Z,7.65
2023-05-20T06:08:59.625Z,7.85
2023-05-20T06:11:04.848Z,7.95
2023-05-20T06:13:09.884Z,9.07
2023-05-20T06:15:15.922Z,8.23
2023-05-20T06:17:21.002Z,7.43
2023-05-20T06:19:26.975Z,7.80
2023-05-20T06:21:33.381Z,8.10
2023-05-20T06:23:38.446Z,7.85
2023-05-20T06:25:46.231Z,8.10
2023-05-20T06:27:51.580Z,7.95
2023-05-20T06:29:56.821Z,7.82
2023-05-20T06:32:02.765Z,6.47
2023-05-20T06:34:07.984Z,7.60
2023-05-20T06:36:15.707Z,8.38
2023-05-20T06:38:20.889Z,8.30
2023-05-20T06:40:30.298Z,6.90
2023-05-20T06:42:37.993Z,8.18
2023-05-20T06:44:42.975Z,8.07
2023-05-20T06:46:48.200Z,9.25
2023-05-20T06:48:57.038Z,7.35
2023-05-20T06:51:02.077Z,7.93
2023-05-20T06:53:07.310Z,7.57
2023-05-20T06:55:13.279Z,7.88
2023-05-20T06:57:18.324Z,8.07
2023-05-20T06:59:26.544Z,7.47
2023-05-20T07:01:31.869Z,8.30
2023-05-20T07:03:37.221Z,6.90
2023-05-20T07:05:42.317Z,7.93
2023-05-20T07:07:47.654Z,7.63
2023-05-20T07:09:57.210Z,6.60
2023-05-20T07:12:02.522Z,7.80
2023-05-20T07:14:08.854Z,8.15
2023-05-20T07:16:17.832Z,7.65
2023-05-20T07:18:28.833Z,7.30
2023-05-20T07:20:34.226Z,8.23
2023-05-20T07:22:39.365Z,7.28
2023-05-20T07:24:44.572Z,7.75
2023-05-20T07:26:50.158Z,7.22
2023-05-20T07:28:55.455Z,6.70
2023-05-20T07:31:00.627Z,7.57
2023-05-20T07:33:08.624Z,7.10
2023-05-20T07:35:13.711Z,7.28
2023-05-20T07:37:21.045Z,7.10
2023-05-20T07:39:26.721Z,7.25
2023-05-20T07:41:31.729Z,6.43
2023-05-20T07:43:37.071Z,6.60
2023-05-20T07:45:42.110Z,7.85
2023-05-20T07:47:47.146Z,6.95
2023-05-20T07:49:57.690Z,7.05
2023-05-20T07:52:03.250Z,7.15
2023-05-20T07:54:08.312Z,7.10
2023-05-20T07:56:13.267Z,8.18
2023-05-20T07:58:18.297Z,7.57
2023-05-20T08:00:26.368Z,7.20
2023-05-20T08:02:31.589Z,7.25
2023-05-20T08:04:37.329Z,7.15
2023-05-20T08:06:45.441Z,8.95
2023-05-20T08:08:51.308Z,6.85
2023-05-20T08:10:58.929Z,7.22
2023-05-20T08:13:04.065Z,7.30
2023-05-20T08:15:10.806Z,6.80
2023-05-20T08:17:15.955Z,6.90
2023-05-20T08:19:21.133Z,6.55
2023-05-20T08:21:28.951Z,6.78
2023-05-20T08:23:39.661Z,7.05
2023-05-20T08:25:47.057Z,8.98
2023-05-20T08:27:52.198Z,6.20
2023-05-20T08:29:58.646Z,6.47
2023-05-20T08:32:05.500Z,6.43
2023-05-20T08:34:10.527Z,6.95
2023-05-20T08:36:16.623Z,7.00
2023-05-20T08:38:26.711Z,6.47
2023-05-20T08:40:34.661Z,6.82
2023-05-20T08:42:39.635Z,7.10
2023-05-20T08:44:49.708Z,7.97
2023-05-20T08:46:58.774Z,5.75
2023-05-20T08:49:03.884Z,5.57
2023-05-20T08:51:12.783Z,6.68
2023-05-20T08:53:17.969Z,5.55
2023-05-20T08:55:29.986Z,5.57
2023-05-20T08:57:38.232Z,5.63
2023-05-20T08:59:47.116Z,5.30
2023-05-20T09:01:52.416Z,5.05
2023-05-20T09:03:58.212Z,5.40
2023-05-20T09:06:07.988Z,5.45
2023-05-20T09:08:14.796Z,5.95
2023-05-20T09:10:32.435Z,4.28
2023-05-20T09:12:41.757Z,5.25
2023-05-20T09:14:47.000Z,5.32
2023-05-20T09:16:52.525Z,5.00
2023-05-20T09:19:01.481Z,5.18
2023-05-20T09:21:09.840Z,5.40
2023-05-20T09:23:14.981Z,4.80
2023-05-20T09:25:24.006Z,5.18
2023-05-20T09:27:35.272Z,5.00
2023-05-20T09:29:44.112Z,4.30
2023-05-20T09:31:49.626Z,5.07
2023-05-20T09:33:56.235Z,4.80
2023-05-20T09:36:11.997Z,4.38
2023-05-20T09:38:19.407Z,3.50
2023-05-20T09:40:30.883Z,4.03
2023-05-20T09:42:41.937Z,3.70
2023-05-20T09:44:51.480Z,4.18
2023-05-20T09:46:57.419Z,4.57
2023-05-20T09:49:03.299Z,3.90
2023-05-20T09:51:09.250Z,3.70
2023-05-20T09:53:15.607Z,4.18
2023-05-20T09:55:25.204Z,3.08
2023-05-20T09:57:31.383Z,3.25
2023-05-20T09:59:39.082Z,3.65
2023-05-20T10:01:47.717Z,4.00
2023-05-20T10:03:56.602Z,2.92
2023-05-20T10:06:20.650Z,3.70
2023-05-20T10:08:39.192Z,3.50
2023-05-20T10:10:55.209Z,3.53
2023-05-20T10:13:13.047Z,3.08
2023-05-20T10:15:32.584Z,2.97
2023-05-20T10:17:48.561Z,3.60
2023-05-20T10:20:01.427Z,2.72
2023-05-20T10:22:08.972Z,3.08
2023-05-20T10:24:14.498Z,2.83
2023-05-20T10:26:19.795Z,3.50
2023-05-20T10:28:38.723Z,3.55
2023-05-20T10:30:56.883Z,2.92
2023-05-20T10:33:08.062Z,3.10
2023-05-20T10:35:13.474Z,2.70
2023-05-20T10:37:29.050Z,2.67
2023-05-20T10:39:37.890Z,2.95
2023-05-20T10:41:43.241Z,2.63
2023-05-20T10:43:48.460Z,2.45
2023-05-20T10:45:58.675Z,2.90
2023-05-20T10:48:06.859Z,3.58
2023-05-20T10:50:32.165Z,3.53
2023-05-20T10:52:41.534Z,3.42
2023-05-20T10:54:50.187Z,3.88
2023-05-20T10:56:57.906Z,3.45
2023-05-20T10:59:05.371Z,3.15
2023-05-20T11:01:10.741Z,3.00
2023-05-20T11:03:20.908Z,3.92
2023-05-20T11:05:27.444Z,2.97
2023-05-20T11:07:34.508Z,3.28
2023-05-20T11:09:39.900Z,3.30
2023-05-20T11:11:45.008Z,3.70
2023-05-20T11:13:55.806Z,2.80
2023-05-20T11:16:01.228Z,3.38
2023-05-20T11:18:07.562Z,3.10
2023-05-20T11:20:18.113Z,3.15
2023-05-20T11:22:27.143Z,3.20
2023-05-20T11:24:35.161Z,2.90
2023-05-20T11:26:40.775Z,3.30
2023-05-20T11:28:46.186Z,3.38
2023-05-20T11:30:52.521Z,4.15
2023-05-20T11:33:04.381Z,3.47
2023-05-20T11:35:11.148Z,2.63
2023-05-20T11:37:19.268Z,3.22
2023-05-20T11:39:27.058Z,3.13
2023-05-20T11:41:35.273Z,3.15
2023-05-20T11:43:43.872Z,3.03
2023-05-20T11:45:50.688Z,3.30
2023-05-20T11:48:05.880Z,2.90
2023-05-20T11:50:13.312Z,3.03
2023-05-20T11:52:26.526Z,3.22
2023-05-20T11:56:39.784Z,3.33
2023-05-20T11:58:48.103Z,4.00
2023-05-20T12:01:05.795Z,3.05
2023-05-20T12:03:30.675Z,3.22
2023-05-20T12:05:35.968Z,3.00
2023-05-20T12:07:47.446Z,3.17
2023-05-20T12:09:52.556Z,2.88
2023-05-20T12:11:57.869Z,3.00
2023-05-20T12:14:02.952Z,2.88
2023-05-20T12:16:09.093Z,3.20
2023-05-20T12:18:14.440Z,2.92
2023-05-20T12:20:24.633Z,3.28
2023-05-20T12:22:30.316Z,3.47
2023-05-20T12:24:38.114Z,3.22
2023-05-20T12:26:43.345Z,3.20
2023-05-20T12:28:51.246Z,3.25
2023-05-20T12:30:56.488Z,3.95
2023-05-20T12:33:02.972Z,3.38
2023-05-20T12:35:10.165Z,3.33
2023-05-20T12:37:15.606Z,3.58
2023-05-20T12:39:21.927Z,3.00
2023-05-20T12:41:33.743Z,3.30
2023-05-20T12:43:38.960Z,3.08
2023-05-20T12:45:44.023Z,2.97
2023-05-20T12:47:49.337Z,3.20
2023-05-20T12:49:54.584Z,2.88
2023-05-20T12:52:08.628Z,3.10
2023-05-20T12:54:20.087Z,3.25
2023-05-20T12:56:26.603Z,3.50
2023-05-20T12:58:34.298Z,2.80
2023-05-20T13:00:42.229Z,3.13
2023-05-20T13:02:48.767Z,3.10
2023-05-20T13:04:53.929Z,3.42
2023-05-20T13:07:00.666Z,3.15
2023-05-20T13:09:05.901Z,2.83
2023-05-20T13:11:10.830Z,3.20
2023-05-20T13:13:21.564Z,2.60
2023-05-20T13:15:33.778Z,2.90
2023-05-20T13:17:39.152Z,3.40
2023-05-20T13:19:46.003Z,3.60
2023-05-20T13:21:52.272Z,2.92
2023-05-20T13:23:57.519Z,2.97
2023-05-20T13:26:02.976Z,2.95
2023-05-20T13:28:08.634Z,3.10
2023-05-20T13:30:14.699Z,2.88
2023-05-20T13:32:22.347Z,3.08
2023-05-20T13:34:27.478Z,2.50
2023-05-20T13:36:35.735Z,2.67
2023-05-20T13:38:43.068Z,2.80
2023-05-20T13:40:49.429Z,2.88
2023-05-20T13:42:54.668Z,2.65
2023-05-20T13:45:03.076Z,2.80
2023-05-20T13:47:08.664Z,2.88
2023-05-20T13:49:16.293Z,2.60
2023-05-20T13:51:21.982Z,2.90
2023-05-20T13:53:27.305Z,3.03
2023-05-20T13:55:35.291Z,2.83
2023-05-20T13:57:43.661Z,5.47
2023-05-20T13:59:52.043Z,2.70
2023-05-20T14:01:57.172Z,2.72
2023-05-20T14:04:04.591Z,2.65
2023-05-20T14:06:12.700Z,2.67
2023-05-20T14:08:18.241Z,3.00
2023-05-20T14:10:28.734Z,3.13
2023-05-20T14:12:34.956Z,2.72
2023-05-20T14:14:40.488Z,2.53
2023-05-20T14:16:45.609Z,2.47
2023-05-20T14:18:54.210Z,2.88
2023-05-20T14:20:59.824Z,2.95
2023-05-20T14:23:08.495Z,2.92
2023-05-20T14:25:14.081Z,2.72
2023-05-20T14:27:28.666Z,2.92
2023-05-20T14:29:34.786Z,2.80
2023-05-20T14:31:40.845Z,2.80
2023-05-20T14:33:45.829Z,3.13
2023-05-20T14:35:50.896Z,2.83
2023-05-20T14:37:57.081Z,2.63
2023-05-20T14:40:05.115Z,2.75
2023-05-20T14:42:10.354Z,3.10
2023-05-20T14:44:15.509Z,2.58
2023-05-20T14:46:21.115Z,2.70
2023-05-20T14:48:31.409Z,2.80
2023-05-20T14:50:38.590Z,3.00
2023-05-20T14:52:44.030Z,3.20
2023-05-20T14:54:49.290Z,3.28
2023-05-20T14:56:57.654Z,2.60
2023-05-20T14:59:03.435Z,2.75
2023-05-20T15:01:08.589Z,3.47
2023-05-20T15:03:14.765Z,3.28
2023-05-20T15:05:24.031Z,3.17
2023-05-20T15:07:30.143Z,2.90
2023-05-20T15:09:39.151Z,2.65
2023-05-20T15:11:44.969Z,3.15
2023-05-20T15:13:55.774Z,2.95
2023-05-20T15:16:01.175Z,3.28
2023-05-20T15:18:07.823Z,3.05
2023-05-20T15:20:14.524Z,2.97
2023-05-20T15:22:19.590Z,2.88
2023-05-20T15:24:25.495Z,2.75
2023-05-20T15:26:31.372Z,2.90
2023-05-20T15:28:38.053Z,2.80
2023-05-20T15:30:45.766Z,3.00
2023-05-20T15:32:50.954Z,2.75
2023-05-20T15:34:58.677Z,2.72
2023-05-20T15:37:04.670Z,2.70
2023-05-20T15:39:09.882Z,3.20
2023-05-20T15:41:17.687Z,3.05
2023-05-20T15:43:30.613Z,2.70
2023-05-20T15:45:35.913Z,2.83
2023-05-20T15:47:46.771Z,2.60
2023-05-20T15:49:51.727Z,2.70
2023-05-20T15:52:03.735Z,2.88
2023-05-20T15:54:09.819Z,2.70
2023-05-20T15:56:16.051Z,3.03
2023-05-20T15:58:24.599Z,2.83
2023-05-20T16:00:35.437Z,2.70
2023-05-20T16:02:44.226Z,3.05
2023-05-20T16:04:49.551Z,2.72
2023-05-20T16:06:54.606Z,2.53
2023-05-20T16:09:01.041Z,3.40
2023-05-20T16:11:07.846Z,2.65
2023-05-20T16:13:12.699Z,2.75
2023-05-20T16:15:20.987Z,3.50
2023-05-20T16:17:28.840Z,2.67
2023-05-20T16:19:36.979Z,2.83
2023-05-20T16:21:43.551Z,2.97
2023-05-20T16:23:50.999Z,3.10
2023-05-20T16:25:56.485Z,2.78
2023-05-20T16:28:01.778Z,3.13
2023-05-20T16:30:12.456Z,2.97
2023-05-20T16:32:17.771Z,2.60
2023-05-20T16:34:22.839Z,2.83
2023-05-20T16:36:30.408Z,2.90
2023-05-20T16:38:37.164Z,2.92
2023-05-20T16:40:42.205Z,3.53
2023-05-20T16:42:47.138Z,3.00
2023-05-20T16:44:54.489Z,3.72
2023-05-20T16:46:59.659Z,3.05
2023-05-20T16:49:05.027Z,3.30
2023-05-20T16:51:10.003Z,3.00
2023-05-20T16:53:21.089Z,3.00
2023-05-20T16:55:27.463Z,2.92
2023-05-20T16:57:35.836Z,2.63
2023-05-20T16:59:51.300Z,3.05
2023-05-20T17:01:58.273Z,3.08
2023-05-20T17:04:04.503Z,3.30
2023-05-20T17:06:10.388Z,3.45
2023-05-20T17:08:21.467Z,3.22
2023-05-20T17:10:29.023Z,3.47
2023-05-20T17:12:34.904Z,3.63
2023-05-20T17:14:43.966Z,3.28
2023-05-20T17:16:50.807Z,4.88
2023-05-20T17:18:56.816Z,4.22
2023-05-20T17:21:01.882Z,4.30
2023-05-20T17:23:08.050Z,3.63
2023-05-20T17:25:15.965Z,3.65
2023-05-20T17:27:21.142Z,3.30
2023-05-20T17:29:26.251Z,3.70
2023-05-20T17:31:31.299Z,3.70
2023-05-20T17:33:38.189Z,4.05
2023-05-20T17:35:43.386Z,3.70
2023-05-20T17:37:50.053Z,3.58
2023-05-20T17:39:55.517Z,4.18
2023-05-20T17:42:06.262Z,3.55
2023-05-20T17:44:13.346Z,3.45
2023-05-20T17:46:19.524Z,3.97
2023-05-20T17:48:24.861Z,3.92
2023-05-20T17:50:30.501Z,4.05
2023-05-20T17:52:35.938Z,4.25
2023-05-20T17:54:41.406Z,4.35
2023-05-20T17:56:48.034Z,3.83
2023-05-20T17:58:59.028Z,3.67
2023-05-20T18:01:04.649Z,3.92
2023-05-20T18:03:10.179Z,4.07
2023-05-20T18:05:17.688Z,4.18
2023-05-20T18:07:22.861Z,4.40
2023-05-20T18:09:27.985Z,4.38
2023-05-20T18:11:36.923Z,4.15
2023-05-20T18:13:41.912Z,4.30
2023-05-20T18:15:52.566Z,4.03
2023-05-20T18:17:58.244Z,3.72
2023-05-20T18:20:05.259Z,4.60
2023-05-20T18:22:12.238Z,4.47
2023-05-20T18:24:20.909Z,4.28
2023-05-20T18:26:26.869Z,4.70
2023-05-20T18:28:33.403Z,4.40
2023-05-20T18:30:38.680Z,4.80
2023-05-20T18:32:46.423Z,4.78
2023-05-20T18:34:51.795Z,3.97
2023-05-20T18:36:57.131Z,4.00
2023-05-20T18:39:02.572Z,3.78
2023-05-20T18:41:09.053Z,4.32
2023-05-20T18:43:14.290Z,4.40
2023-05-20T18:45:21.165Z,4.45
2023-05-20T18:47:30.337Z,3.72
2023-05-20T18:49:38.205Z,4.28
2023-05-20T18:51:43.834Z,3.63
2023-05-20T18:53:53.033Z,4.38
2023-05-20T18:56:04.970Z,4.20
2023-05-20T18:58:10.304Z,4.30
2023-05-20T19:00:19.784Z,3.95
2023-05-20T19:02:25.745Z,4.68
2023-05-20T19:04:30.937Z,5.40
2023-05-20T19:06:40.516Z,5.57
2023-05-20T19:08:46.265Z,5.18
2023-05-20T19:10:57.980Z,5.35
2023-05-20T19:13:03.195Z,4.68
2023-05-20T19:15:09.507Z,4.40
2023-05-20T19:17:18.907Z,5.22
2023-05-20T19:19:33.810Z,4.40
2023-05-20T19:21:43.980Z,4.90
2023-05-20T19:23:49.137Z,4.07
2023-05-20T19:25:55.219Z,4.78
2023-05-20T19:28:00.778Z,4.72
2023-05-20T19:30:09.108Z,4.30
2023-05-20T19:32:15.951Z,4.82
2023-05-20T19:34:21.959Z,4.30
2023-05-20T19:36:27.253Z,4.68
2023-05-20T19:38:35.194Z,4.30
2023-05-20T19:40:42.908Z,4.53
2023-05-20T19:42:51.818Z,5.13
2023-05-20T19:44:57.558Z,4.82
2023-05-20T19:47:06.266Z,4.82
2023-05-20T19:49:11.375Z,4.28
2023-05-20T19:51:16.453Z,4.57
2023-05-20T19:53:21.808Z,4.30
2023-05-20T19:55:30.065Z,4.80
2023-05-20T19:57:35.342Z,5.07
2023-05-20T19:59:42.296Z,4.70
2023-05-20T20:01:47.792Z,4.60
2023-05-20T20:04:05.467Z,4.70
2023-05-20T20:06:13.100Z,4.43
2023-05-20T20:08:18.128Z,4.45
2023-05-20T20:10:32.248Z,4.75
2023-05-20T20:12:38.433Z,4.53
2023-05-20T20:14:43.417Z,4.40
2023-05-20T20:16:49.430Z,4.53
2023-05-20T20:18:54.905Z,4.68
2023-05-20T20:21:01.016Z,4.35
2023-05-20T20:23:09.646Z,4.78
2023-05-20T20:25:16.802Z,4.47
2023-05-20T20:27:26.459Z,3.90
2023-05-20T20:29:32.582Z,4.32
2023-05-20T20:31:38.949Z,4.38
2023-05-20T20:33:44.528Z,4.30
2023-05-20T20:35:52.496Z,3.95
2023-05-20T20:37:57.599Z,3.97
2023-05-20T20:40:06.383Z,4.50
2023-05-20T20:42:11.286Z,3.95
2023-05-20T20:44:23.647Z,4.25
2023-05-20T20:46:31.412Z,4.90
2023-05-20T20:48:36.591Z,3.75
2023-05-20T20:50:41.739Z,4.20
2023-05-20T20:52:55.884Z,3.83
2023-05-20T20:55:00.932Z,4.20
2023-05-20T20:57:06.391Z,3.50
2023-05-20T20:59:13.870Z,4.38
2023-05-20T21:01:26.749Z,4.32
2023-05-20T21:03:35.481Z,4.00
2023-05-20T21:05:40.958Z,4.32
2023-05-20T21:07:46.788Z,4.35
2023-05-20T21:09:57.990Z,4.32
2023-05-20T21:12:06.985Z,4.00
2023-05-20T21:14:12.116Z,4.22
2023-05-20T21:16:17.819Z,4.07
2023-05-20T21:18:29.325Z,4.47
2023-05-20T21:20:35.029Z,4.25
2023-05-20T21:22:40.395Z,4.30
2023-05-20T21:24:45.892Z,4.38
2023-05-20T21:26:51.958Z,4.38
2023-05-20T21:29:02.820Z,4.30
2023-05-20T21:31:07.949Z,4.25
2023-05-20T21:33:14.218Z,4.18
2023-05-20T21:35:27.759Z,4.40
2023-05-20T21:37:33.387Z,4.38
2023-05-20T21:39:39.175Z,4.63
2023-05-20T21:41:44.292Z,4.20
2023-05-20T21:43:51.589Z,4.18
2023-05-20T21:45:56.616Z,4.90
2023-05-20T21:48:01.815Z,4.82
2023-05-20T21:50:11.597Z,5.20
2023-05-20T21:52:22.394Z,4.90
2023-05-20T21:54:27.448Z,4.50
2023-05-20T21:56:36.688Z,4.70
2023-05-20T21:58:43.470Z,4.15
2023-05-20T22:00:52.639Z,5.10
2023-05-20T22:02:58.757Z,5.20
2023-05-20T22:05:05.434Z,5.30
2023-05-20T22:07:10.664Z,5.82
2023-05-20T22:09:21.877Z,5.50
2023-05-20T22:11:30.215Z,5.35
2023-05-20T22:13:36.758Z,5.40
2023-05-20T22:15:42.711Z,5.38
2023-05-20T22:17:47.736Z,5.32
2023-05-20T22:19:56.948Z,4.72
2023-05-20T22:22:02.298Z,5.28
2023-05-20T22:24:09.802Z,4.85
2023-05-20T22:26:19.205Z,5.28
2023-05-20T22:28:27.395Z,4.72
2023-05-20T22:30:32.945Z,4.35
2023-05-20T22:32:38.021Z,5.10
2023-05-20T22:34:43.213Z,5.15
2023-05-20T22:36:49.474Z,4.43
2023-05-20T22:38:57.119Z,5.00
2023-05-20T22:41:02.305Z,4.85
2023-05-20T22:43:13.392Z,4.80
2023-05-20T22:45:22.105Z,4.68
2023-05-20T22:47:27.017Z,5.25
2023-05-20T22:49:33.481Z,5.45
2023-05-20T22:51:38.882Z,5.03
2023-05-20T22:53:44.084Z,5.10
2023-05-20T22:55:49.352Z,5.22
2023-05-20T22:57:56.992Z,4.45
2023-05-20T23:00:07.200Z,4.80
2023-05-20T23:02:12.512Z,5.18
2023-05-20T23:04:17.895Z,5.07
2023-05-20T23:06:28.608Z,4.97
2023-05-20T23:08:33.960Z,5.20
2023-05-20T23:10:43.385Z,5.22
2023-05-20T23:12:48.546Z,5.30
2023-05-20T23:15:04.552Z,5.80
2023-05-20T23:17:10.417Z,5.93
2023-05-20T23:19:15.744Z,5.65
2023-05-20T23:21:21.171Z,5.75
2023-05-20T23:23:31.795Z,5.05
2023-05-20T23:25:38.996Z,5.63
2023-05-20T23:27:44.417Z,5.60
2023-05-20T23:29:49.574Z,6.10
2023-05-20T23:31:57.270Z,6.20
2023-05-20T23:34:07.363Z,5.40
2023-05-20T23:36:14.380Z,5.53
2023-05-20T23:38:19.541Z,5.65
2023-05-20T23:40:26.926Z,5.10
2023-05-20T23:42:32.405Z,6.05
2023-05-20T23:44:39.634Z,5.70
2023-05-20T23:46:46.246Z,6.63
2023-05-20T23:49:00.571Z,7.72
2023-05-20T23:51:05.781Z,8.45
2023-05-20T23:53:13.168Z,8.80
2023-05-20T23:55:19.341Z,8.90
2023-05-20T23:57:27.141Z,8.40
2023-05-20T23:59:32.304Z,8.27
